sensor_id;sensor_type;location;lat;lon;timestamp;temperature;humidity
4056;DHT22;2043;52.184;8.690;2023-05-18T00:01:11;5.50;99.90
4056;DHT22;2043;52.184;8.690;2023-05-18T00:03:40;5.30;99.90
4056;DHT22;2043;52.184;8.690;2023-05-18T00:06:08;5.40;99.90
4056;DHT22;2043;52.184;8.690;2023-05-18T00:08:36;5.40;99.90
4056;DHT22;2043;52.184;8.690;2023-05-18T00:11:05;5.40;99.90
4056;DHT22;2043;52.184;8.690;2023-05-18T00:13:32;5.40;99.90
4056;DHT22;2043;52.184;8.690;2023-05-18T00:15:59;5.40;99.90
4056;DHT22;2043;52.184;8.690;2023-05-18T00:18:26;5.40;99.90
4056;DHT22;2043;52.184;8.690;2023-05-18T00:20:54;5.30;99.90
4056;DHT22;2043;52.184;8.690;2023-05-18T00:23:28;5.20;99.90
4056;DHT22;2043;52.184;8.690;2023-05-18T00:26:00;5.10;99.90
4056;DHT22;2043;52.184;8.690;2023-05-18T00:28:28;5.00;99.90
4056;DHT22;2043;52.184;8.690;2023-05-18T00:30:55;5.00;99.90
4056;DHT22;2043;52.184;8.690;2023-05-18T00:33:22;5.00;99.90
4056;DHT22;2043;52.184;8.690;2023-05-18T00:35:49;4.90;99.90
4056;DHT22;2043;52.184;8.690;2023-05-18T00:40:43;4.80;99.90
4056;DHT22;2043;52.184;8.690;2023-05-18T00:43:10;4.70;99.90
4056;DHT22;2043;52.184;8.690;2023-05-18T00:45:37;4.70;99.90
4056;DHT22;2043;52.184;8.690;2023-05-18T00:48:04;4.70;99.90
4056;DHT22;2043;52.184;8.690;2023-05-18T00:50:32;4.50;99.90
4056;DHT22;2043;52.184;8.690;2023-05-18T00:52:59;4.50;99.90
4056;DHT22;2043;52.184;8.690;2023-05-18T00:55:26;4.50;99.90
4056;DHT22;2043;52.184;8.690;2023-05-18T00:57:55;4.50;99.90
4056;DHT22;2043;52.184;8.690;2023-05-18T01:00:22;4.60;99.90
4056;DHT22;2043;52.184;8.690;2023-05-18T01:02:49;4.60;99.90
4056;DHT22;2043;52.184;8.690;2023-05-18T01:05:17;4.60;99.90
4056;DHT22;2043;52.184;8.690;2023-05-18T01:07:45;4.50;99.90
4056;DHT22;2043;52.184;8.690;2023-05-18T01:10:15;4.50;99.90
4056;DHT22;2043;52.184;8.690;2023-05-18T01:12:48;4.50;99.90
4056;DHT22;2043;52.184;8.690;2023-05-18T01:15:22;4.50;99.90
4056;DHT22;2043;52.184;8.690;2023-05-18T01:18:09;4.40;99.90
4056;DHT22;2043;52.184;8.690;2023-05-18T01:20:46;4.40;99.90
4056;DHT22;2043;52.184;8.690;2023-05-18T01:28:39;4.40;99.90
4056;DHT22;2043;52.184;8.690;2023-05-18T01:31:07;4.30;99.90
4056;DHT22;2043;52.184;8.690;2023-05-18T01:33:35;4.30;99.90
4056;DHT22;2043;52.184;8.690;2023-05-18T01:38:29;4.40;99.90
4056;DHT22;2043;52.184;8.690;2023-05-18T01:41:17;4.60;99.90
4056;DHT22;2043;52.184;8.690;2023-05-18T01:43:59;4.80;99.90
4056;DHT22;2043;52.184;8.690;2023-05-18T01:46:45;4.90;99.90
4056;DHT22;2043;52.184;8.690;2023-05-18T01:49:17;4.80;99.90
4056;DHT22;2043;52.184;8.690;2023-05-18T01:51:48;4.60;99.90
4056;DHT22;2043;52.184;8.690;2023-05-18T01:54:18;4.50;99.90
4056;DHT22;2043;52.184;8.690;2023-05-18T01:56:46;4.50;99.90
4056;DHT22;2043;52.184;8.690;2023-05-18T01:59:14;4.40;99.90
4056;DHT22;2043;52.184;8.690;2023-05-18T02:01:41;4.20;99.90
4056;DHT22;2043;52.184;8.690;2023-05-18T02:04:09;4.10;99.90
4056;DHT22;2043;52.184;8.690;2023-05-18T02:09:04;3.90;99.90
4056;DHT22;2043;52.184;8.690;2023-05-18T02:21:21;3.90;99.90
4056;DHT22;2043;52.184;8.690;2023-05-18T02:23:48;3.90;99.90
4056;DHT22;2043;52.184;8.690;2023-05-18T02:26:15;3.90;99.90
4056;DHT22;2043;52.184;8.690;2023-05-18T02:28:41;3.90;99.90
4056;DHT22;2043;52.184;8.690;2023-05-18T02:31:10;3.90;99.90
4056;DHT22;2043;52.184;8.690;2023-05-18T02:33:40;3.90;99.90
4056;DHT22;2043;52.184;8.690;2023-05-18T02:36:08;3.90;99.90
4056;DHT22;2043;52.184;8.690;2023-05-18T02:38:39;3.90;99.90
4056;DHT22;2043;52.184;8.690;2023-05-18T02:41:08;3.80;99.90
4056;DHT22;2043;52.184;8.690;2023-05-18T02:43:35;3.70;99.90
4056;DHT22;2043;52.184;8.690;2023-05-18T02:46:03;3.70;99.90
4056;DHT22;2043;52.184;8.690;2023-05-18T02:55:55;3.60;99.90
4056;DHT22;2043;52.184;8.690;2023-05-18T03:00:52;3.60;99.90
4056;DHT22;2043;52.184;8.690;2023-05-18T03:08:20;3.50;99.90
4056;DHT22;2043;52.184;8.690;2023-05-18T03:10:48;3.50;99.90
4056;DHT22;2043;52.184;8.690;2023-05-18T03:13:16;3.60;99.90
4056;DHT22;2043;52.184;8.690;2023-05-18T03:15:43;3.60;99.90
4056;DHT22;2043;52.184;8.690;2023-05-18T03:23:05;3.60;99.90
4056;DHT22;2043;52.184;8.690;2023-05-18T03:25:32;3.60;99.90
4056;DHT22;2043;52.184;8.690;2023-05-18T03:27:59;3.60;99.90
4056;DHT22;2043;52.184;8.690;2023-05-18T03:30:26;3.50;99.90
4056;DHT22;2043;52.184;8.690;2023-05-18T03:32:53;3.50;99.90
4056;DHT22;2043;52.184;8.690;2023-05-18T03:35:22;3.40;99.90
4056;DHT22;2043;52.184;8.690;2023-05-18T03:37:49;3.40;99.90
4056;DHT22;2043;52.184;8.690;2023-05-18T03:40:16;3.40;99.90
4056;DHT22;2043;52.184;8.690;2023-05-18T03:42:43;3.30;99.90
4056;DHT22;2043;52.184;8.690;2023-05-18T03:45:10;3.30;99.90
4056;DHT22;2043;52.184;8.690;2023-05-18T03:47:38;3.20;99.90
4056;DHT22;2043;52.184;8.690;2023-05-18T03:50:06;3.20;99.90
4056;DHT22;2043;52.184;8.690;2023-05-18T03:52:34;3.30;99.90
4056;DHT22;2043;52.184;8.690;2023-05-18T03:55:01;3.30;99.90
4056;DHT22;2043;52.184;8.690;2023-05-18T03:57:29;3.30;99.90
4056;DHT22;2043;52.184;8.690;2023-05-18T03:59:57;3.30;99.90
4056;DHT22;2043;52.184;8.690;2023-05-18T04:02:24;3.20;99.90
4056;DHT22;2043;52.184;8.690;2023-05-18T04:04:51;3.20;99.90
4056;DHT22;2043;52.184;8.690;2023-05-18T04:07:20;3.30;99.90
4056;DHT22;2043;52.184;8.690;2023-05-18T04:09:50;3.30;99.90
4056;DHT22;2043;52.184;8.690;2023-05-18T04:12:17;3.40;99.90
4056;DHT22;2043;52.184;8.690;2023-05-18T04:14:44;3.40;99.90
4056;DHT22;2043;52.184;8.690;2023-05-18T04:17:18;3.50;99.90
4056;DHT22;2043;52.184;8.690;2023-05-18T04:19:49;3.60;99.90
4056;DHT22;2043;52.184;8.690;2023-05-18T04:22:16;3.60;99.90
4056;DHT22;2043;52.184;8.690;2023-05-18T04:24:43;3.60;99.90
4056;DHT22;2043;52.184;8.690;2023-05-18T04:27:13;3.60;99.90
4056;DHT22;2043;52.184;8.690;2023-05-18T04:29:40;3.70;99.90
4056;DHT22;2043;52.184;8.690;2023-05-18T04:34:37;3.90;99.90
4056;DHT22;2043;52.184;8.690;2023-05-18T04:37:04;4.00;99.90
4056;DHT22;2043;52.184;8.690;2023-05-18T04:39:32;4.10;99.90
4056;DHT22;2043;52.184;8.690;2023-05-18T04:42:00;4.30;99.90
4056;DHT22;2043;52.184;8.690;2023-05-18T04:44:30;4.50;99.90
4056;DHT22;2043;52.184;8.690;2023-05-18T04:49:28;4.90;99.90
4056;DHT22;2043;52.184;8.690;2023-05-18T04:51:55;5.00;99.90
4056;DHT22;2043;52.184;8.690;2023-05-18T04:54:26;5.10;99.90
4056;DHT22;2043;52.184;8.690;2023-05-18T04:56:57;5.20;99.90
4056;DHT22;2043;52.184;8.690;2023-05-18T04:59:24;5.30;99.90
4056;DHT22;2043;52.184;8.690;2023-05-18T05:01:52;5.40;99.90
4056;DHT22;2043;52.184;8.690;2023-05-18T05:04:22;5.50;99.90
4056;DHT22;2043;52.184;8.690;2023-05-18T05:06:49;5.60;99.90
4056;DHT22;2043;52.184;8.690;2023-05-18T05:09:16;5.70;99.90
4056;DHT22;2043;52.184;8.690;2023-05-18T05:11:43;5.70;99.90
4056;DHT22;2043;52.184;8.690;2023-05-18T05:14:10;5.70;99.90
4056;DHT22;2043;52.184;8.690;2023-05-18T05:16:37;5.80;99.90
4056;DHT22;2043;52.184;8.690;2023-05-18T05:19:04;5.90;99.90
4056;DHT22;2043;52.184;8.690;2023-05-18T05:21:31;6.00;99.90
4056;DHT22;2043;52.184;8.690;2023-05-18T05:23:58;6.10;99.90
4056;DHT22;2043;52.184;8.690;2023-05-18T05:26:27;6.10;99.90
4056;DHT22;2043;52.184;8.690;2023-05-18T05:28:53;6.30;99.90
4056;DHT22;2043;52.184;8.690;2023-05-18T05:31:20;6.40;99.90
4056;DHT22;2043;52.184;8.690;2023-05-18T05:33:47;6.50;99.90
4056;DHT22;2043;52.184;8.690;2023-05-18T05:36:14;6.70;99.70
4056;DHT22;2043;52.184;8.690;2023-05-18T05:38:41;6.80;98.80
4056;DHT22;2043;52.184;8.690;2023-05-18T05:41:07;7.00;98.70
4056;DHT22;2043;52.184;8.690;2023-05-18T05:43:34;7.10;97.40
4056;DHT22;2043;52.184;8.690;2023-05-18T05:46:01;7.20;96.40
4056;DHT22;2043;52.184;8.690;2023-05-18T05:48:28;7.30;96.20
4056;DHT22;2043;52.184;8.690;2023-05-18T05:53:22;7.60;94.00
4056;DHT22;2043;52.184;8.690;2023-05-18T05:55:49;7.80;93.30
4056;DHT22;2043;52.184;8.690;2023-05-18T05:58:16;7.90;92.80
4056;DHT22;2043;52.184;8.690;2023-05-18T06:00:43;8.10;91.80
4056;DHT22;2043;52.184;8.690;2023-05-18T06:03:12;8.20;91.40
4056;DHT22;2043;52.184;8.690;2023-05-18T06:05:39;8.20;91.70
4056;DHT22;2043;52.184;8.690;2023-05-18T06:08:06;8.30;92.00
4056;DHT22;2043;52.184;8.690;2023-05-18T06:10:33;8.40;91.60
4056;DHT22;2043;52.184;8.690;2023-05-18T06:13:00;8.30;91.00
4056;DHT22;2043;52.184;8.690;2023-05-18T06:15:27;8.40;90.60
4056;DHT22;2043;52.184;8.690;2023-05-18T06:17:54;8.50;90.90
4056;DHT22;2043;52.184;8.690;2023-05-18T06:20:21;8.60;90.40
4056;DHT22;2043;52.184;8.690;2023-05-18T06:22:48;8.80;90.20
4056;DHT22;2043;52.184;8.690;2023-05-18T06:25:15;9.10;90.00
4056;DHT22;2043;52.184;8.690;2023-05-18T06:27:43;9.20;89.80
4056;DHT22;2043;52.184;8.690;2023-05-18T06:30:11;9.30;89.60
4056;DHT22;2043;52.184;8.690;2023-05-18T06:32:38;9.50;87.30
4056;DHT22;2043;52.184;8.690;2023-05-18T06:35:05;9.70;87.40
4056;DHT22;2043;52.184;8.690;2023-05-18T06:37:33;9.80;86.50
4056;DHT22;2043;52.184;8.690;2023-05-18T06:39:59;10.00;85.70
4056;DHT22;2043;52.184;8.690;2023-05-18T06:42:26;10.10;85.70
4056;DHT22;2043;52.184;8.690;2023-05-18T06:44:53;10.10;85.30
4056;DHT22;2043;52.184;8.690;2023-05-18T06:47:20;9.90;85.50
4056;DHT22;2043;52.184;8.690;2023-05-18T06:49:47;10.10;85.50
4056;DHT22;2043;52.184;8.690;2023-05-18T06:52:14;10.30;84.70
4056;DHT22;2043;52.184;8.690;2023-05-18T06:54:41;10.40;83.60
4056;DHT22;2043;52.184;8.690;2023-05-18T06:57:08;10.20;83.90
4056;DHT22;2043;52.184;8.690;2023-05-18T06:59:35;10.10;84.80
4056;DHT22;2043;52.184;8.690;2023-05-18T07:02:02;10.20;84.00
4056;DHT22;2043;52.184;8.690;2023-05-18T07:04:29;10.30;84.10
4056;DHT22;2043;52.184;8.690;2023-05-18T07:06:57;10.30;84.00
4056;DHT22;2043;52.184;8.690;2023-05-18T07:09:24;10.30;84.20
4056;DHT22;2043;52.184;8.690;2023-05-18T07:11:51;10.40;83.90
4056;DHT22;2043;52.184;8.690;2023-05-18T07:14:18;10.70;83.80
4056;DHT22;2043;52.184;8.690;2023-05-18T07:16:45;11.10;83.10
4056;DHT22;2043;52.184;8.690;2023-05-18T07:19:13;11.50;83.00
4056;DHT22;2043;52.184;8.690;2023-05-18T07:21:41;11.80;82.00
4056;DHT22;2043;52.184;8.690;2023-05-18T07:24:08;12.00;80.70
4056;DHT22;2043;52.184;8.690;2023-05-18T07:26:35;12.00;79.90
4056;DHT22;2043;52.184;8.690;2023-05-18T07:29:02;12.10;80.40
4056;DHT22;2043;52.184;8.690;2023-05-18T07:31:29;12.30;80.90
4056;DHT22;2043;52.184;8.690;2023-05-18T07:33:56;12.40;80.80
4056;DHT22;2043;52.184;8.690;2023-05-18T07:36:23;12.40;80.20
4056;DHT22;2043;52.184;8.690;2023-05-18T07:38:51;12.30;79.30
4056;DHT22;2043;52.184;8.690;2023-05-18T07:41:21;12.40;80.50
4056;DHT22;2043;52.184;8.690;2023-05-18T07:43:51;12.50;79.40
4056;DHT22;2043;52.184;8.690;2023-05-18T07:46:19;12.70;78.90
4056;DHT22;2043;52.184;8.690;2023-05-18T07:48:46;12.70;78.00
4056;DHT22;2043;52.184;8.690;2023-05-18T07:51:12;12.90;77.60
4056;DHT22;2043;52.184;8.690;2023-05-18T07:53:39;13.00;77.10
4056;DHT22;2043;52.184;8.690;2023-05-18T07:56:07;12.90;77.70
4056;DHT22;2043;52.184;8.690;2023-05-18T07:58:35;13.00;78.00
4056;DHT22;2043;52.184;8.690;2023-05-18T08:01:02;13.00;77.50
4056;DHT22;2043;52.184;8.690;2023-05-18T08:03:29;12.90;78.10
4056;DHT22;2043;52.184;8.690;2023-05-18T08:05:56;12.90;77.40
4056;DHT22;2043;52.184;8.690;2023-05-18T08:08:23;13.10;77.80
4056;DHT22;2043;52.184;8.690;2023-05-18T08:10:50;13.40;77.50
4056;DHT22;2043;52.184;8.690;2023-05-18T08:13:18;13.20;78.20
4056;DHT22;2043;52.184;8.690;2023-05-18T08:15:45;13.40;77.60
4056;DHT22;2043;52.184;8.690;2023-05-18T08:18:21;13.50;77.20
4056;DHT22;2043;52.184;8.690;2023-05-18T08:20:48;13.60;77.30
4056;DHT22;2043;52.184;8.690;2023-05-18T08:23:19;13.70;77.00
4056;DHT22;2043;52.184;8.690;2023-05-18T08:25:46;13.90;76.30
4056;DHT22;2043;52.184;8.690;2023-05-18T08:28:13;13.90;75.10
4056;DHT22;2043;52.184;8.690;2023-05-18T08:30:40;13.80;75.20
4056;DHT22;2043;52.184;8.690;2023-05-18T08:35:34;13.60;76.40
4056;DHT22;2043;52.184;8.690;2023-05-18T08:38:01;13.60;75.70
4056;DHT22;2043;52.184;8.690;2023-05-18T08:43:28;13.80;75.40
4056;DHT22;2043;52.184;8.690;2023-05-18T08:46:12;14.20;74.60
4056;DHT22;2043;52.184;8.690;2023-05-18T08:48:41;14.20;74.10
4056;DHT22;2043;52.184;8.690;2023-05-18T08:51:09;14.20;72.90
4056;DHT22;2043;52.184;8.690;2023-05-18T08:53:38;14.20;73.90
4056;DHT22;2043;52.184;8.690;2023-05-18T08:56:05;14.40;73.50
4056;DHT22;2043;52.184;8.690;2023-05-18T08:58:41;14.50;75.20
4056;DHT22;2043;52.184;8.690;2023-05-18T09:01:10;14.80;73.40
4056;DHT22;2043;52.184;8.690;2023-05-18T09:03:38;15.00;73.50
4056;DHT22;2043;52.184;8.690;2023-05-18T09:06:06;15.20;72.40
4056;DHT22;2043;52.184;8.690;2023-05-18T09:08:33;15.40;71.40
4056;DHT22;2043;52.184;8.690;2023-05-18T09:11:01;15.30;72.10
4056;DHT22;2043;52.184;8.690;2023-05-18T09:13:29;15.10;71.30
4056;DHT22;2043;52.184;8.690;2023-05-18T09:15:56;15.10;74.00
4056;DHT22;2043;52.184;8.690;2023-05-18T09:18:23;15.10;72.20
4056;DHT22;2043;52.184;8.690;2023-05-18T09:20:53;14.80;72.60
4056;DHT22;2043;52.184;8.690;2023-05-18T09:23:20;14.90;73.50
4056;DHT22;2043;52.184;8.690;2023-05-18T09:25:47;15.30;73.00
4056;DHT22;2043;52.184;8.690;2023-05-18T09:28:34;15.30;73.10
4056;DHT22;2043;52.184;8.690;2023-05-18T09:31:02;15.70;72.40
4056;DHT22;2043;52.184;8.690;2023-05-18T09:33:35;15.50;71.90
4056;DHT22;2043;52.184;8.690;2023-05-18T09:36:09;15.20;71.70
4056;DHT22;2043;52.184;8.690;2023-05-18T09:38:38;15.00;72.70
4056;DHT22;2043;52.184;8.690;2023-05-18T09:41:10;14.80;72.30
4056;DHT22;2043;52.184;8.690;2023-05-18T09:43:38;14.80;72.30
4056;DHT22;2043;52.184;8.690;2023-05-18T09:46:06;14.70;73.50
4056;DHT22;2043;52.184;8.690;2023-05-18T09:48:41;15.00;73.60
4056;DHT22;2043;52.184;8.690;2023-05-18T09:51:10;15.40;72.80
4056;DHT22;2043;52.184;8.690;2023-05-18T09:53:39;15.40;73.60
4056;DHT22;2043;52.184;8.690;2023-05-18T09:56:07;15.60;74.10
4056;DHT22;2043;52.184;8.690;2023-05-18T09:58:38;15.70;72.20
4056;DHT22;2043;52.184;8.690;2023-05-18T10:01:05;15.90;72.90
4056;DHT22;2043;52.184;8.690;2023-05-18T10:03:37;16.00;73.10
4056;DHT22;2043;52.184;8.690;2023-05-18T10:06:09;16.10;72.80
4056;DHT22;2043;52.184;8.690;2023-05-18T10:08:36;16.40;72.00
4056;DHT22;2043;52.184;8.690;2023-05-18T10:11:04;16.50;70.90
4056;DHT22;2043;52.184;8.690;2023-05-18T10:13:32;16.30;73.60
4056;DHT22;2043;52.184;8.690;2023-05-18T10:16:03;16.60;72.40
4056;DHT22;2043;52.184;8.690;2023-05-18T10:18:36;16.60;71.00
4056;DHT22;2043;52.184;8.690;2023-05-18T10:21:05;16.60;71.00
4056;DHT22;2043;52.184;8.690;2023-05-18T10:23:35;16.40;73.30
4056;DHT22;2043;52.184;8.690;2023-05-18T10:26:06;16.70;72.80
4056;DHT22;2043;52.184;8.690;2023-05-18T10:28:43;16.70;71.10
4056;DHT22;2043;52.184;8.690;2023-05-18T10:31:11;16.80;70.10
4056;DHT22;2043;52.184;8.690;2023-05-18T10:33:43;17.00;72.00
4056;DHT22;2043;52.184;8.690;2023-05-18T10:36:10;17.10;73.30
4056;DHT22;2043;52.184;8.690;2023-05-18T10:38:37;17.10;70.10
4056;DHT22;2043;52.184;8.690;2023-05-18T10:41:11;17.10;70.50
4056;DHT22;2043;52.184;8.690;2023-05-18T10:43:40;17.30;70.70
4056;DHT22;2043;52.184;8.690;2023-05-18T10:46:07;17.20;71.40
4056;DHT22;2043;52.184;8.690;2023-05-18T10:48:38;17.20;71.50
4056;DHT22;2043;52.184;8.690;2023-05-18T10:51:06;16.80;70.10
4056;DHT22;2043;52.184;8.690;2023-05-18T10:53:34;16.90;70.50
4056;DHT22;2043;52.184;8.690;2023-05-18T10:56:02;17.10;70.50
4056;DHT22;2043;52.184;8.690;2023-05-18T10:58:30;17.20;72.00
4056;DHT22;2043;52.184;8.690;2023-05-18T11:00:59;17.20;72.00
4056;DHT22;2043;52.184;8.690;2023-05-18T11:03:26;17.50;71.60
4056;DHT22;2043;52.184;8.690;2023-05-18T11:06:08;17.70;70.20
4056;DHT22;2043;52.184;8.690;2023-05-18T11:11:12;17.60;70.50
4056;DHT22;2043;52.184;8.690;2023-05-18T11:13:45;17.60;70.60
4056;DHT22;2043;52.184;8.690;2023-05-18T11:16:14;18.40;68.80
4056;DHT22;2043;52.184;8.690;2023-05-18T11:18:49;18.40;68.70
4056;DHT22;2043;52.184;8.690;2023-05-18T11:24:29;17.70;70.60
4056;DHT22;2043;52.184;8.690;2023-05-18T11:27:34;17.70;70.80
4056;DHT22;2043;52.184;8.690;2023-05-18T11:29:54;17.60;69.90
4056;DHT22;2043;52.184;8.690;2023-05-18T11:32:49;17.70;70.60
4056;DHT22;2043;52.184;8.690;2023-05-18T11:35:22;18.00;69.90
4056;DHT22;2043;52.184;8.690;2023-05-18T11:43:21;18.20;69.90
4056;DHT22;2043;52.184;8.690;2023-05-18T11:45:52;18.10;70.80
4056;DHT22;2043;52.184;8.690;2023-05-18T11:48:23;18.20;70.60
4056;DHT22;2043;52.184;8.690;2023-05-18T11:50:54;18.60;69.20
4056;DHT22;2043;52.184;8.690;2023-05-18T11:53:26;18.40;68.80
4056;DHT22;2043;52.184;8.690;2023-05-18T11:55:53;18.40;69.30
4056;DHT22;2043;52.184;8.690;2023-05-18T11:58:23;18.60;69.00
4056;DHT22;2043;52.184;8.690;2023-05-18T12:00:51;18.90;69.10
4056;DHT22;2043;52.184;8.690;2023-05-18T12:03:22;18.70;69.70
4056;DHT22;2043;52.184;8.690;2023-05-18T12:05:50;18.90;69.40
4056;DHT22;2043;52.184;8.690;2023-05-18T12:08:17;18.90;68.00
4056;DHT22;2043;52.184;8.690;2023-05-18T12:10:50;18.90;68.80
4056;DHT22;2043;52.184;8.690;2023-05-18T12:13:17;19.10;69.30
4056;DHT22;2043;52.184;8.690;2023-05-18T12:15:44;19.10;69.20
4056;DHT22;2043;52.184;8.690;2023-05-18T12:18:12;19.40;69.10
4056;DHT22;2043;52.184;8.690;2023-05-18T12:20:39;19.70;68.20
4056;DHT22;2043;52.184;8.690;2023-05-18T12:23:06;19.30;67.20
4056;DHT22;2043;52.184;8.690;2023-05-18T12:25:34;19.30;67.40
4056;DHT22;2043;52.184;8.690;2023-05-18T12:28:02;18.70;67.20
4056;DHT22;2043;52.184;8.690;2023-05-18T12:30:30;18.50;68.30
4056;DHT22;2043;52.184;8.690;2023-05-18T12:33:02;18.50;70.20
4056;DHT22;2043;52.184;8.690;2023-05-18T12:35:29;18.70;68.70
4056;DHT22;2043;52.184;8.690;2023-05-18T12:37:58;19.00;68.40
4056;DHT22;2043;52.184;8.690;2023-05-18T12:40:36;18.60;67.00
4056;DHT22;2043;52.184;8.690;2023-05-18T12:43:10;18.40;69.20
4056;DHT22;2043;52.184;8.690;2023-05-18T12:45:37;18.40;69.20
4056;DHT22;2043;52.184;8.690;2023-05-18T12:48:08;18.90;66.90
4056;DHT22;2043;52.184;8.690;2023-05-18T12:50:35;18.80;67.70
4056;DHT22;2043;52.184;8.690;2023-05-18T12:53:03;18.80;68.90
4056;DHT22;2043;52.184;8.690;2023-05-18T12:55:30;18.80;68.90
4056;DHT22;2043;52.184;8.690;2023-05-18T12:58:02;18.70;69.60
4056;DHT22;2043;52.184;8.690;2023-05-18T13:00:34;18.70;69.60
4056;DHT22;2043;52.184;8.690;2023-05-18T13:03:08;18.30;68.10
4056;DHT22;2043;52.184;8.690;2023-05-18T13:05:40;18.30;69.40
4056;DHT22;2043;52.184;8.690;2023-05-18T13:08:08;18.60;71.10
4056;DHT22;2043;52.184;8.690;2023-05-18T13:10:42;18.60;70.60
4056;DHT22;2043;52.184;8.690;2023-05-18T13:13:09;19.00;68.80
4056;DHT22;2043;52.184;8.690;2023-05-18T13:15:37;19.10;68.30
4056;DHT22;2043;52.184;8.690;2023-05-18T13:18:06;19.10;67.60
4056;DHT22;2043;52.184;8.690;2023-05-18T13:20:48;19.10;67.60
4056;DHT22;2043;52.184;8.690;2023-05-18T13:23:18;18.70;67.70
4056;DHT22;2043;52.184;8.690;2023-05-18T13:25:45;18.90;67.60
4056;DHT22;2043;52.184;8.690;2023-05-18T13:28:15;19.10;67.10
4056;DHT22;2043;52.184;8.690;2023-05-18T13:30:43;19.20;67.20
4056;DHT22;2043;52.184;8.690;2023-05-18T13:33:10;19.20;67.20
4056;DHT22;2043;52.184;8.690;2023-05-18T13:35:39;19.00;67.50
4056;DHT22;2043;52.184;8.690;2023-05-18T13:38:08;19.10;68.50
4056;DHT22;2043;52.184;8.690;2023-05-18T13:40:36;19.10;68.80
4056;DHT22;2043;52.184;8.690;2023-05-18T13:43:03;19.30;68.60
4056;DHT22;2043;52.184;8.690;2023-05-18T13:45:35;19.30;68.70
4056;DHT22;2043;52.184;8.690;2023-05-18T13:48:02;19.30;68.40
4056;DHT22;2043;52.184;8.690;2023-05-18T13:50:35;19.10;66.90
4056;DHT22;2043;52.184;8.690;2023-05-18T13:53:03;19.10;68.60
4056;DHT22;2043;52.184;8.690;2023-05-18T13:55:30;19.20;67.50
4056;DHT22;2043;52.184;8.690;2023-05-18T13:57:57;19.00;68.10
4056;DHT22;2043;52.184;8.690;2023-05-18T14:00:24;19.10;69.00
4056;DHT22;2043;52.184;8.690;2023-05-18T14:02:51;19.10;68.40
4056;DHT22;2043;52.184;8.690;2023-05-18T14:05:22;19.30;67.30
4056;DHT22;2043;52.184;8.690;2023-05-18T14:07:49;19.30;67.10
4056;DHT22;2043;52.184;8.690;2023-05-18T14:10:18;19.10;66.60
4056;DHT22;2043;52.184;8.690;2023-05-18T14:12:45;18.90;66.80
4056;DHT22;2043;52.184;8.690;2023-05-18T14:15:12;18.90;68.30
4056;DHT22;2043;52.184;8.690;2023-05-18T14:17:41;18.90;66.80
4056;DHT22;2043;52.184;8.690;2023-05-18T14:20:09;19.10;67.80
4056;DHT22;2043;52.184;8.690;2023-05-18T14:22:36;19.00;68.00
4056;DHT22;2043;52.184;8.690;2023-05-18T14:25:03;19.10;67.40
4056;DHT22;2043;52.184;8.690;2023-05-18T14:27:30;19.20;67.30
4056;DHT22;2043;52.184;8.690;2023-05-18T14:29:57;19.10;67.30
4056;DHT22;2043;52.184;8.690;2023-05-18T14:32:24;19.00;67.80
4056;DHT22;2043;52.184;8.690;2023-05-18T14:34:51;18.90;66.40
4056;DHT22;2043;52.184;8.690;2023-05-18T14:37:21;18.70;68.30
4056;DHT22;2043;52.184;8.690;2023-05-18T14:39:48;18.70;67.80
4056;DHT22;2043;52.184;8.690;2023-05-18T14:42:14;18.70;66.90
4056;DHT22;2043;52.184;8.690;2023-05-18T14:44:41;18.70;67.80
4056;DHT22;2043;52.184;8.690;2023-05-18T14:47:08;18.70;68.30
4056;DHT22;2043;52.184;8.690;2023-05-18T14:49:36;18.80;67.70
4056;DHT22;2043;52.184;8.690;2023-05-18T14:52:04;18.70;67.70
4056;DHT22;2043;52.184;8.690;2023-05-18T14:54:31;18.40;68.20
4056;DHT22;2043;52.184;8.690;2023-05-18T14:56:57;18.30;68.30
4056;DHT22;2043;52.184;8.690;2023-05-18T14:59:25;18.40;67.80
4056;DHT22;2043;52.184;8.690;2023-05-18T15:01:52;18.40;67.90
4056;DHT22;2043;52.184;8.690;2023-05-18T15:04:19;18.50;65.90
4056;DHT22;2043;52.184;8.690;2023-05-18T15:06:47;18.50;65.50
4056;DHT22;2043;52.184;8.690;2023-05-18T15:09:15;18.40;66.80
4056;DHT22;2043;52.184;8.690;2023-05-18T15:11:42;18.40;66.70
4056;DHT22;2043;52.184;8.690;2023-05-18T15:14:09;18.40;66.80
4056;DHT22;2043;52.184;8.690;2023-05-18T15:16:35;18.40;66.40
4056;DHT22;2043;52.184;8.690;2023-05-18T15:19:02;18.20;66.20
4056;DHT22;2043;52.184;8.690;2023-05-18T15:21:30;18.20;66.10
4056;DHT22;2043;52.184;8.690;2023-05-18T15:23:57;18.00;66.70
4056;DHT22;2043;52.184;8.690;2023-05-18T15:26:24;18.10;67.00
4056;DHT22;2043;52.184;8.690;2023-05-18T15:28:51;18.10;66.10
4056;DHT22;2043;52.184;8.690;2023-05-18T15:31:18;18.10;65.80
4056;DHT22;2043;52.184;8.690;2023-05-18T15:33:45;18.10;65.80
4056;DHT22;2043;52.184;8.690;2023-05-18T15:36:12;18.10;66.00
4056;DHT22;2043;52.184;8.690;2023-05-18T15:38:39;18.00;66.50
4056;DHT22;2043;52.184;8.690;2023-05-18T15:41:06;17.80;66.60
4056;DHT22;2043;52.184;8.690;2023-05-18T15:43:33;17.70;65.90
4056;DHT22;2043;52.184;8.690;2023-05-18T15:46:02;17.70;65.90
4056;DHT22;2043;52.184;8.690;2023-05-18T15:48:29;17.60;66.20
4056;DHT22;2043;52.184;8.690;2023-05-18T15:50:56;17.70;66.50
4056;DHT22;2043;52.184;8.690;2023-05-18T15:53:23;17.80;65.90
4056;DHT22;2043;52.184;8.690;2023-05-18T15:55:50;17.70;66.30
4056;DHT22;2043;52.184;8.690;2023-05-18T15:58:24;17.60;66.30
4056;DHT22;2043;52.184;8.690;2023-05-18T16:00:50;17.70;66.20
4056;DHT22;2043;52.184;8.690;2023-05-18T16:03:17;17.80;66.50
4056;DHT22;2043;52.184;8.690;2023-05-18T16:05:45;18.00;68.00
4056;DHT22;2043;52.184;8.690;2023-05-18T16:08:11;18.10;66.20
4056;DHT22;2043;52.184;8.690;2023-05-18T16:10:38;18.00;65.80
4056;DHT22;2043;52.184;8.690;2023-05-18T16:13:05;17.80;66.30
4056;DHT22;2043;52.184;8.690;2023-05-18T16:15:33;17.60;66.20
4056;DHT22;2043;52.184;8.690;2023-05-18T16:18:00;17.50;66.50
4056;DHT22;2043;52.184;8.690;2023-05-18T16:20:28;17.50;66.10
4056;DHT22;2043;52.184;8.690;2023-05-18T16:22:56;17.50;66.80
4056;DHT22;2043;52.184;8.690;2023-05-18T16:25:23;17.50;67.00
4056;DHT22;2043;52.184;8.690;2023-05-18T16:27:50;17.60;66.90
4056;DHT22;2043;52.184;8.690;2023-05-18T16:30:17;17.60;66.70
4056;DHT22;2043;52.184;8.690;2023-05-18T16:32:43;17.60;67.10
4056;DHT22;2043;52.184;8.690;2023-05-18T16:35:10;17.60;66.20
4056;DHT22;2043;52.184;8.690;2023-05-18T16:37:37;17.60;67.10
4056;DHT22;2043;52.184;8.690;2023-05-18T16:40:05;17.60;66.30
4056;DHT22;2043;52.184;8.690;2023-05-18T16:42:32;17.50;66.60
4056;DHT22;2043;52.184;8.690;2023-05-18T16:44:59;17.50;66.50
4056;DHT22;2043;52.184;8.690;2023-05-18T16:47:26;17.40;66.80
4056;DHT22;2043;52.184;8.690;2023-05-18T16:49:53;17.50;67.30
4056;DHT22;2043;52.184;8.690;2023-05-18T16:52:20;17.40;67.20
4056;DHT22;2043;52.184;8.690;2023-05-18T16:54:47;17.50;66.90
4056;DHT22;2043;52.184;8.690;2023-05-18T16:57:14;17.50;67.00
4056;DHT22;2043;52.184;8.690;2023-05-18T16:59:41;17.50;67.70
4056;DHT22;2043;52.184;8.690;2023-05-18T17:02:08;17.50;68.00
4056;DHT22;2043;52.184;8.690;2023-05-18T17:04:43;17.60;67.50
4056;DHT22;2043;52.184;8.690;2023-05-18T17:07:15;17.50;67.60
4056;DHT22;2043;52.184;8.690;2023-05-18T17:09:42;17.50;67.60
4056;DHT22;2043;52.184;8.690;2023-05-18T17:12:09;17.30;68.20
4056;DHT22;2043;52.184;8.690;2023-05-18T17:14:37;17.20;68.10
4056;DHT22;2043;52.184;8.690;2023-05-18T17:17:05;17.20;68.30
4056;DHT22;2043;52.184;8.690;2023-05-18T17:19:32;17.10;67.60
4056;DHT22;2043;52.184;8.690;2023-05-18T17:22:01;17.10;68.20